createdAt,value
2023-02-05T19:34:05.518Z,6.50
2023-02-05T19:41:18.205Z,6.60
2023-02-05T19:44:20.466Z,6.60
2023-02-05T19:47:22.546Z,6.60
2023-02-05T19:50:48.988Z,6.60
2023-02-05T20:50:01.933Z,6.10
2023-02-05T20:57:31.766Z,6.10
2023-02-05T21:00:47.052Z,6.10
2023-02-05T21:04:41.324Z,6.00
2023-02-05T21:07:43.433Z,6.00
2023-02-05T21:10:47.473Z,5.90
2023-02-05T21:13:52.733Z,5.80
2023-02-05T21:16:54.789Z,5.80
2023-02-05T21:19:56.874Z,5.90
2023-02-05T21:22:58.851Z,5.90
2023-02-05T21:29:19.885Z,5.90
2023-02-05T21:32:22.240Z,5.80
2023-02-05T21:35:24.231Z,5.80
2023-02-05T21:38:30.815Z,5.80
2023-02-05T21:41:32.847Z,5.70
2023-02-05T21:44:34.844Z,5.80
2023-02-05T21:47:36.989Z,5.80
2023-02-05T21:50:39.886Z,5.70
2023-02-05T21:53:44.648Z,5.60
2023-02-05T21:56:46.600Z,5.60
2023-02-05T21:59:49.505Z,5.60
2023-02-05T22:02:51.457Z,5.70
2023-02-05T22:05:56.291Z,5.70
2023-02-05T22:08:59.574Z,5.70
2023-02-05T22:12:03.995Z,5.60
2023-02-05T22:15:06.218Z,5.70
2023-02-05T22:18:08.385Z,5.60
2023-02-05T22:21:16.892Z,5.60
2023-02-05T22:24:20.377Z,5.60
2023-02-05T22:27:22.486Z,5.70
2023-02-05T22:30:30.768Z,5.70
2023-02-05T22:33:34.125Z,5.70
2023-02-05T22:36:36.438Z,5.60
2023-02-05T22:39:38.378Z,5.60
2023-02-05T22:42:40.292Z,5.50
2023-02-05T22:45:42.481Z,5.50
2023-02-05T22:48:47.017Z,5.40
2023-02-05T22:51:52.214Z,5.40
2023-02-05T22:54:54.329Z,5.40
2023-02-05T22:57:56.399Z,5.40
2023-02-05T23:00:58.665Z,5.40
2023-02-05T23:04:02.347Z,5.30
2023-02-05T23:07:07.365Z,5.30
2023-02-05T23:10:10.402Z,5.30
2023-02-05T23:13:12.392Z,5.30
2023-02-05T23:16:19.055Z,5.30
2023-02-05T23:22:38.255Z,5.30
2023-02-05T23:25:40.330Z,5.30
2023-02-05T23:28:42.905Z,5.30
2023-02-05T23:31:45.526Z,5.30
2023-02-05T23:34:47.466Z,5.30
2023-02-05T23:37:49.820Z,5.20
2023-02-05T23:41:10.310Z,5.20
2023-02-05T23:44:15.555Z,5.30
2023-02-05T23:47:17.664Z,5.10
2023-02-05T23:50:19.554Z,5.10
2023-02-05T23:53:22.928Z,5.20
2023-02-05T23:56:24.833Z,5.20
2023-02-05T23:59:26.835Z,5.10
